Time;durP1;ratioP1;P1;durP2;ratioP2;P2;SDS_P1;SDS_P2;PMS_P1;PMS_P2;Temp;Humidity;BMP_temperature;BMP_pressure;BME280_temperature;BME280_humidity;BME280_pressure;Samples;Min_cycle;Max_cycle;Signal;HPM_P1;HPM_P2
2022/06/18 00:00:20;;;;;;;3.10;1.73;;;;;;;17.39;88.39;100943.50;5204335;28;20037;-73
2022/06/18 00:02:51;;;;;;;6.05;1.58;;;;;;;17.42;86.98;100947.75;5212466;28;20020;-74
2022/06/18 00:05:22;;;;;;;4.85;1.40;;;;;;;17.39;87.84;100950.56;5214331;28;20032;-73
2022/06/18 00:07:55;;;;;;;2.50;1.40;;;;;;;17.47;87.34;100956.28;5214022;28;20024;-74
2022/06/18 00:10:30;;;;;;;2.60;1.55;;;;;;;17.35;87.59;100946.41;5214436;28;20501;-73
2022/06/18 00:16:04;;;;;;;4.10;1.52;;;;;;;17.19;89.03;100950.81;5215315;28;20082;-71
2022/06/18 00:18:34;;;;;;;4.47;1.65;;;;;;;17.19;89.12;100956.09;5212219;28;20398;-74
2022/06/18 00:21:07;;;;;;;3.50;1.77;;;;;;;17.17;89.38;100947.41;5216093;28;20037;-74
2022/06/18 00:23:38;;;;;;;3.78;1.70;;;;;;;17.09;89.30;100939.06;5212626;28;20475;-74
2022/06/18 00:26:10;;;;;;;3.22;1.65;;;;;;;16.94;90.31;100945.22;5207917;28;20059;-73
2022/06/18 00:28:41;;;;;;;3.38;1.65;;;;;;;17.01;89.70;100936.00;5211377;28;20474;-74
2022/06/18 00:31:11;;;;;;;4.70;1.70;;;;;;;16.97;89.64;100942.41;5204808;28;20044;-73
2022/06/18 00:33:41;;;;;;;2.42;1.33;;;;;;;17.07;87.93;100935.66;5208233;28;20146;-73
2022/06/18 00:36:17;;;;;;;2.97;1.70;;;;;;;17.13;88.58;100935.34;5207632;28;20071;-72
2022/06/18 00:38:48;;;;;;;2.92;1.50;;;;;;;17.12;87.57;100934.47;5210018;28;20056;-74
2022/06/18 00:41:22;;;;;;;2.53;1.50;;;;;;;16.84;89.33;100938.75;5213812;28;20021;-73
2022/06/18 00:43:58;;;;;;;2.33;1.60;;;;;;;16.77;89.86;100938.22;5203959;28;20028;-73
2022/06/18 00:46:40;;;;;;;4.05;1.65;;;;;;;16.97;87.58;100923.94;5214765;28;20490;-74
2022/06/18 00:49:33;;;;;;;2.40;1.40;;;;;;;16.95;89.15;100928.44;5208396;28;20060;-73
2022/06/18 00:52:12;;;;;;;3.50;1.30;;;;;;;16.99;87.68;100919.41;5212312;28;20060;-73
2022/06/18 00:54:57;;;;;;;2.25;1.50;;;;;;;17.05;87.42;100911.13;5208816;28;20044;-73
2022/06/18 00:57:35;;;;;;;2.53;1.60;;;;;;;16.87;88.03;100910.38;5212686;28;20082;-73
2022/06/18 01:00:14;;;;;;;5.30;1.70;;;;;;;16.84;88.64;100904.41;5204181;28;20025;-73
2022/06/18 01:02:47;;;;;;;2.67;1.48;;;;;;;16.71;89.85;100906.03;5207976;28;20104;-73
2022/06/18 01:05:23;;;;;;;1.52;1.23;;;;;;;16.55;90.68;100889.31;5214363;28;20033;-73
2022/06/18 01:08:05;;;;;;;2.20;1.40;;;;;;;16.39;92.12;100899.00;5213658;28;20101;-73
2022/06/18 01:10:41;;;;;;;2.95;1.45;;;;;;;16.23;91.43;100886.72;5211549;28;20032;-74
2022/06/18 01:13:15;;;;;;;2.42;1.60;;;;;;;16.06;94.51;100889.41;5200511;28;20032;-73
2022/06/18 01:15:47;;;;;;;3.78;1.67;;;;;;;16.24;91.80;100883.13;5209083;28;20017;-73
2022/06/18 01:18:18;;;;;;;2.30;1.50;;;;;;;16.35;92.23;100886.09;5213317;28;20024;-73
2022/06/18 01:20:53;;;;;;;2.33;1.30;;;;;;;16.43;91.57;100887.38;5212541;28;20033;-74
2022/06/18 01:23:35;;;;;;;2.85;1.50;;;;;;;16.60;90.08;100882.03;5212766;28;20309;-73
2022/06/18 01:26:06;;;;;;;2.60;1.40;;;;;;;16.40;90.62;100879.59;5215077;28;20032;-72
2022/06/18 01:28:37;;;;;;;4.15;1.70;;;;;;;16.35;90.59;100879.00;5207592;28;20394;-74
2022/06/18 01:31:07;;;;;;;3.45;1.70;;;;;;;16.42;90.22;100872.47;5203148;28;20030;-74
2022/06/18 01:33:39;;;;;;;2.42;1.48;;;;;;;16.51;90.53;100877.25;5210628;28;20410;-73
2022/06/18 01:36:11;;;;;;;2.40;1.42;;;;;;;16.22;91.44;100875.28;5206699;28;20104;-73
2022/06/18 01:38:44;;;;;;;3.92;1.80;;;;;;;16.18;92.93;100868.50;5213894;28;20033;-73
2022/06/18 01:44:26;;;;;;;3.42;1.50;;;;;;;16.08;93.33;100862.00;5200878;28;20479;-72
2022/06/18 01:47:05;;;;;;;3.10;1.65;;;;;;;15.94;93.59;100864.53;5211845;28;20040;-73
2022/06/18 01:49:41;;;;;;;3.70;1.70;;;;;;;16.09;93.15;100858.44;5214839;28;20032;-73
2022/06/18 01:52:13;;;;;;;5.50;1.42;;;;;;;16.10;91.46;100854.00;5207822;28;20017;-73
2022/06/18 01:54:52;;;;;;;5.07;1.70;;;;;;;15.85;93.77;100859.72;5213825;28;20037;-74
2022/06/18 01:57:29;;;;;;;4.32;1.80;;;;;;;15.51;95.74;100854.50;5211937;28;20391;-74
2022/06/18 02:00:12;;;;;;;2.65;1.40;;;;;;;15.90;93.70;100851.59;5203224;28;20068;-73
2022/06/18 02:02:44;;;;;;;2.70;1.60;;;;;;;15.98;93.22;100839.69;5210001;28;20115;-74
2022/06/18 02:05:15;;;;;;;2.67;1.50;;;;;;;15.70;93.79;100842.06;5210920;28;20033;-73
2022/06/18 02:07:47;;;;;;;3.67;1.67;;;;;;;15.68;94.77;100846.56;5194762;28;20048;-74
2022/06/18 02:10:40;;;;;;;3.58;1.95;;;;;;;15.59;96.61;100840.94;5211132;28;20031;-74
2022/06/18 02:13:12;;;;;;;2.45;1.60;;;;;;;15.66;94.82;100835.28;5198699;28;20029;-74
2022/06/18 02:15:46;;;;;;;3.70;1.80;;;;;;;15.68;94.50;100830.78;5210127;28;20020;-73
2022/06/18 02:18:17;;;;;;;3.22;1.65;;;;;;;15.74;93.82;100830.44;5210596;28;20029;-73
2022/06/18 02:20:54;;;;;;;4.60;1.70;;;;;;;15.74;94.60;100829.59;5213042;28;20029;-73
2022/06/18 02:23:24;;;;;;;3.15;1.88;;;;;;;15.83;92.90;100822.06;5194021;28;20030;-73
2022/06/18 02:25:54;;;;;;;2.83;1.70;;;;;;;15.68;95.25;100822.88;5211644;28;20564;-74
2022/06/18 02:28:32;;;;;;;3.28;1.60;;;;;;;15.83;93.34;100813.28;5209406;28;20690;-74
2022/06/18 02:31:04;;;;;;;3.00;1.50;;;;;;;15.93;92.58;100810.09;5202104;28;20028;-73
2022/06/18 02:33:51;;;;;;;3.45;1.80;;;;;;;15.69;93.79;100814.03;5226709;22;20064;-74
2022/06/18 02:36:41;;;;;;;3.88;1.60;;;;;;;15.64;94.43;100813.41;5219953;28;20480;-74
2022/06/18 02:39:34;;;;;;;2.92;1.70;;;;;;;15.61;94.48;100812.72;5226260;28;20040;-74
2022/06/18 02:42:16;;;;;;;2.83;1.77;;;;;;;15.50;95.79;100804.53;5208890;28;20075;-74
2022/06/18 02:44:48;;;;;;;3.88;1.63;;;;;;;15.76;93.76;100811.91;5228341;28;20563;-74
2022/06/18 02:47:21;;;;;;;2.67;1.70;;;;;;;15.68;93.99;100799.16;5231935;28;20029;-74
2022/06/18 02:49:56;;;;;;;3.17;1.60;;;;;;;15.59;94.96;100799.66;5232087;28;20522;-74
2022/06/18 02:52:36;;;;;;;;;;;;;;;15.63;95.20;100811.72;5232051;28;20500;-74
2022/06/18 02:55:17;;;;;;;2.25;1.60;;;;;;;15.77;92.75;100798.69;5232826;28;20014;-74
2022/06/18 02:57:50;;;;;;;4.32;1.73;;;;;;;15.58;94.82;100799.72;5226475;28;20502;-74
2022/06/18 03:00:21;;;;;;;4.13;1.60;;;;;;;15.62;94.75;100803.88;5221325;28;20386;-74
2022/06/18 03:02:51;;;;;;;4.28;1.83;;;;;;;15.59;94.38;100793.50;5229684;28;20057;-75
2022/06/18 03:05:27;;;;;;;2.45;1.70;;;;;;;15.57;94.37;100796.22;5231490;28;20079;-75
2022/06/18 03:07:58;;;;;;;3.72;1.63;;;;;;;15.54;95.17;100795.53;5231328;28;20462;-74
2022/06/18 03:13:18;;;;;;;2.58;1.63;;;;;;;15.76;92.04;100785.56;5219123;28;20090;-74
2022/06/18 03:15:51;;;;;;;2.15;1.48;;;;;;;15.72;93.22;100787.50;5229568;28;20251;-74
2022/06/18 03:18:25;;;;;;;2.33;1.60;;;;;;;15.65;92.49;100782.63;5230605;28;20037;-74
2022/06/18 03:21:09;;;;;;;2.53;1.55;;;;;;;15.71;93.55;100790.22;5231367;28;20111;-74
2022/06/18 03:23:39;;;;;;;2.78;1.63;;;;;;;15.85;92.77;100785.91;5224982;28;20040;-75
2022/06/18 03:26:11;;;;;;;2.95;1.48;;;;;;;15.81;93.88;100788.78;5215042;28;20047;-75
2022/06/18 03:28:42;;;;;;;3.65;1.63;;;;;;;15.69;95.22;100778.94;5224725;28;20044;-74
2022/06/18 03:31:13;;;;;;;3.92;1.98;;;;;;;15.77;93.04;100782.84;5221565;28;20083;-74
2022/06/18 03:33:46;;;;;;;2.78;1.70;;;;;;;15.97;92.43;100789.69;5232933;28;20020;-74
2022/06/18 03:36:18;;;;;;;3.33;1.60;;;;;;;15.94;92.79;100788.06;5230144;28;20116;-74
2022/06/18 03:38:49;;;;;;;3.70;1.60;;;;;;;16.02;91.35;100792.94;5231726;28;20074;-74
2022/06/18 03:41:21;;;;;;;3.40;1.50;;;;;;;16.03;90.96;100790.19;5229306;28;20051;-74
2022/06/18 03:43:54;;;;;;;2.67;1.50;;;;;;;16.29;89.73;100787.00;5220591;28;20033;-74
2022/06/18 03:46:24;;;;;;;3.05;1.55;;;;;;;16.15;90.83;100789.53;5230694;28;20498;-74
2022/06/18 03:49:01;;;;;;;3.75;1.70;;;;;;;16.23;91.44;100787.31;5230715;28;20094;-74
2022/06/18 03:51:32;;;;;;;4.40;2.05;;;;;;;16.33;90.54;100785.88;5232204;28;20489;-74
2022/06/18 03:54:03;;;;;;;2.65;1.40;;;;;;;16.51;89.43;100774.34;5229820;28;20031;-74
2022/06/18 03:56:34;;;;;;;4.53;1.60;;;;;;;16.56;88.96;100779.34;5232339;28;20028;-75
2022/06/18 03:59:04;;;;;;;2.67;1.73;;;;;;;16.33;90.81;100772.69;5225207;28;20739;-74
2022/06/18 04:01:40;;;;;;;3.38;1.50;;;;;;;16.46;90.28;100781.66;5224224;28;20030;-74
2022/06/18 04:04:12;;;;;;;4.57;1.75;;;;;;;16.49;89.87;100772.72;5228932;28;20528;-74
2022/06/18 04:06:43;;;;;;;2.78;1.63;;;;;;;16.60;90.40;100776.47;5232396;28;20073;-74
2022/06/18 04:09:13;;;;;;;2.45;1.50;;;;;;;16.58;90.27;100775.69;5229002;28;20028;-74
2022/06/18 04:11:43;;;;;;;3.78;1.60;;;;;;;16.87;88.16;100766.94;5210756;28;20264;-74
2022/06/18 04:14:14;;;;;;;3.80;1.60;;;;;;;16.77;89.51;100769.25;5203094;28;20033;-74
2022/06/18 04:16:44;;;;;;;3.30;1.40;;;;;;;16.79;90.24;100771.84;5232086;28;20056;-74
2022/06/18 04:19:14;;;;;;;2.28;1.52;;;;;;;16.88;89.11;100777.44;5229316;28;20029;-74
2022/06/18 04:21:45;;;;;;;2.28;1.55;;;;;;;16.94;90.65;100770.94;5232161;28;20035;-74
2022/06/18 04:24:15;;;;;;;2.05;1.30;;;;;;;17.31;88.44;100775.75;5229596;28;20063;-74
2022/06/18 04:26:46;;;;;;;3.42;1.40;;;;;;;17.39;87.15;100778.81;5213814;28;20038;-74
2022/06/18 04:29:16;;;;;;;5.20;1.80;;;;;;;17.16;90.54;100779.31;5224671;28;20053;-74
2022/06/18 04:31:46;;;;;;;2.88;1.40;;;;;;;17.44;88.23;100784.66;5225025;28;20054;-74
2022/06/18 04:34:17;;;;;;;2.90;1.50;;;;;;;17.66;88.14;100775.34;5229571;28;20079;-74
2022/06/18 04:36:47;;;;;;;4.13;1.45;;;;;;;17.82;87.17;100777.91;5232912;28;20089;-74
2022/06/18 04:39:18;;;;;;;2.05;1.20;;;;;;;18.12;86.57;100783.91;5233298;28;20465;-74
2022/06/18 04:41:48;;;;;;;4.65;1.50;;;;;;;18.92;83.66;100775.94;5229363;28;20117;-74
2022/06/18 04:44:18;;;;;;;4.07;1.17;;;;;;;19.83;81.02;100768.75;5225308;28;20025;-74
2022/06/18 04:46:49;;;;;;;4.32;1.30;;;;;;;20.50;77.23;100770.91;5234870;28;20044;-75
2022/06/18 04:49:19;;;;;;;2.45;1.10;;;;;;;21.84;73.17;100767.66;5233134;28;20037;-75
2022/06/18 04:51:50;;;;;;;4.30;1.00;;;;;;;23.45;71.61;100755.94;5234828;28;20389;-74
2022/06/18 04:54:20;;;;;;;3.80;1.02;;;;;;;24.48;65.65;100759.19;5233404;28;20445;-75
2022/06/18 04:56:50;;;;;;;1.90;1.10;;;;;;;25.52;64.36;100761.03;5234260;28;20035;-74
2022/06/18 04:59:21;;;;;;;2.20;1.00;;;;;;;26.90;59.14;100753.59;5227758;28;20037;-75
2022/06/18 05:02:03;;;;;;;3.50;1.10;;;;;;;25.86;64.63;100755.03;5228337;28;20051;-74
2022/06/18 05:04:34;;;;;;;2.55;0.98;;;;;;;27.08;61.98;100757.13;5235598;28;20364;-76
2022/06/18 05:07:04;;;;;;;2.60;1.00;;;;;;;28.56;58.15;100751.28;5232308;28;20033;-75
2022/06/18 05:09:35;;;;;;;2.47;1.00;;;;;;;27.88;60.27;100753.19;5235234;28;20266;-75
2022/06/18 05:12:05;;;;;;;2.13;0.88;;;;;;;27.75;61.47;100757.34;5227883;28;20052;-74
2022/06/18 05:14:36;;;;;;;1.45;0.80;;;;;;;30.26;55.04;100741.91;5227295;28;20056;-75
2022/06/18 05:17:11;;;;;;;2.37;1.07;;;;;;;29.03;58.78;100737.94;5231520;28;20075;-75
2022/06/18 05:19:41;;;;;;;;;;;;;;;30.22;56.32;100737.91;5228588;28;20291;-75
2022/06/18 05:22:12;;;;;;;2.97;0.80;;;;;;;29.20;58.81;100738.78;5235256;28;19919;-75
2022/06/18 05:24:42;;;;;;;4.73;0.80;;;;;;;29.07;59.91;100738.44;5231054;28;20048;-75
2022/06/18 05:27:25;;;;;;;1.52;0.75;;;;;;;29.59;58.47;100731.69;5234582;28;20282;-76
2022/06/18 05:29:56;;;;;;;0.98;0.60;;;;;;;31.01;57.53;100736.56;5223952;28;20218;-75
2022/06/18 05:32:27;;;;;;;1.60;0.88;;;;;;;31.56;56.67;100735.22;5229158;28;20119;-76
2022/06/18 05:34:57;;;;;;;1.33;0.70;;;;;;;31.00;53.28;100735.72;5232714;28;20055;-75
2022/06/18 05:37:30;;;;;;;1.33;0.77;;;;;;;31.61;52.51;100730.13;5233620;28;20090;-74
2022/06/18 05:40:03;;;;;;;4.50;0.90;;;;;;;31.04;52.75;100736.19;5232445;28;20060;-75
2022/06/18 05:42:33;;;;;;;1.42;0.70;;;;;;;30.59;52.85;100730.78;5226651;28;20040;-75
2022/06/18 05:45:05;;;;;;;2.47;0.90;;;;;;;30.98;52.60;100724.25;5227266;28;20025;-75
2022/06/18 05:47:35;;;;;;;2.45;0.70;;;;;;;31.30;52.67;100715.03;5233678;28;20485;-75
2022/06/18 05:50:10;;;;;;;1.58;0.90;;;;;;;30.16;54.16;100714.31;5231485;28;20103;-75
2022/06/18 05:52:41;;;;;;;2.03;0.82;;;;;;;29.05;55.81;100718.94;5209219;28;20021;-74
2022/06/18 05:55:11;;;;;;;3.80;0.85;;;;;;;28.30;55.48;100713.69;5235220;28;20718;-75
2022/06/18 05:57:50;;;;;;;4.38;0.93;;;;;;;27.53;58.59;100720.22;5231051;28;20024;-75
2022/06/18 06:00:24;;;;;;;2.33;1.10;;;;;;;27.92;57.86;100714.25;5220020;28;20041;-74
2022/06/18 06:02:55;;;;;;;3.75;1.00;;;;;;;27.19;57.72;100717.47;5230888;28;20020;-76
2022/06/18 06:05:25;;;;;;;2.08;0.80;;;;;;;27.39;59.32;100702.84;5232994;28;20036;-74
2022/06/18 06:07:55;;;;;;;2.55;0.80;;;;;;;27.91;57.38;100704.50;5197937;28;20435;-74
2022/06/18 06:13:19;;;;;;;1.77;1.10;;;;;;;27.66;57.94;100708.06;5220022;28;20147;-75
2022/06/18 06:15:51;;;;;;;1.40;0.90;;;;;;;27.94;57.50;100697.97;5230753;28;20161;-74
2022/06/18 06:18:23;;;;;;;2.85;1.00;;;;;;;28.85;57.19;100696.84;5231772;28;20044;-75
2022/06/18 06:20:55;;;;;;;3.55;1.20;;;;;;;28.68;58.19;100709.63;5232214;28;20024;-74
2022/06/18 06:23:26;;;;;;;1.92;1.10;;;;;;;28.23;56.07;100714.50;5228960;28;20090;-75
2022/06/18 06:25:57;;;;;;;2.40;1.10;;;;;;;29.14;56.12;100707.97;5225905;28;20033;-75
2022/06/18 06:28:29;;;;;;;2.28;1.20;;;;;;;28.95;56.64;100707.47;5209276;28;20128;-73
2022/06/18 06:30:59;;;;;;;3.58;1.30;;;;;;;28.65;55.96;100701.88;5225856;28;20047;-74
2022/06/18 06:33:30;;;;;;;5.63;1.48;;;;;;;28.79;55.18;100704.75;5223485;28;20024;-72
2022/06/18 06:36:00;;;;;;;4.90;1.53;;;;;;;29.07;54.91;100712.34;5191178;28;20032;-74
2022/06/18 06:38:32;;;;;;;5.18;1.45;;;;;;;29.35;53.66;100702.91;5224182;28;20275;-74
2022/06/18 06:41:02;;;;;;;3.67;1.70;;;;;;;29.85;53.49;100703.47;5223304;28;20070;-75
2022/06/18 06:43:33;;;;;;;5.53;1.40;;;;;;;29.78;53.10;100705.16;5225087;28;20033;-75
2022/06/18 06:46:03;;;;;;;3.75;1.20;;;;;;;30.18;52.45;100704.19;5225617;28;20608;-74
2022/06/18 06:48:33;;;;;;;5.78;1.35;;;;;;;30.52;51.46;100707.34;5229623;28;20070;-75
2022/06/18 06:51:12;;;;;;;3.40;1.23;;;;;;;30.24;52.81;100706.19;5233585;28;20032;-76
2022/06/18 06:53:43;;;;;;;3.10;1.20;;;;;;;30.38;52.82;100705.41;5227176;28;20036;-75
2022/06/18 06:59:09;;;;;;;3.38;1.08;;;;;;;31.01;51.74;100704.16;5225482;28;20259;-73
2022/06/18 07:01:40;;;;;;;4.38;1.10;;;;;;;31.37;51.25;100700.63;5217908;28;20473;-75
2022/06/18 07:04:11;;;;;;;1.70;0.95;;;;;;;31.59;50.33;100701.56;5198698;28;20036;-75
2022/06/18 07:06:42;;;;;;;2.83;1.15;;;;;;;31.43;50.80;100702.59;5224162;28;20409;-75
2022/06/18 07:09:12;;;;;;;2.35;1.00;;;;;;;31.85;50.50;100699.28;5226008;28;20235;-74
2022/06/18 07:11:43;;;;;;;2.38;1.25;;;;;;;31.70;50.09;100696.56;5207827;28;20025;-75
2022/06/18 07:14:13;;;;;;;2.50;1.30;;;;;;;31.39;50.74;100685.03;5218716;28;20037;-75
2022/06/18 07:16:49;;;;;;;2.40;1.27;;;;;;;31.27;51.99;100691.94;5223036;28;20074;-74
2022/06/18 07:19:19;;;;;;;3.83;1.00;;;;;;;31.66;50.72;100697.97;5228288;28;20131;-74
2022/06/18 07:21:51;;;;;;;3.45;1.00;;;;;;;32.47;50.96;100682.38;5229816;28;20104;-74
2022/06/18 07:24:22;;;;;;;2.40;1.30;;;;;;;32.67;49.68;100686.13;5230734;28;20028;-75
2022/06/18 07:26:52;;;;;;;2.63;1.17;;;;;;;32.08;50.70;100681.88;5231231;28;20437;-75
2022/06/18 07:29:23;;;;;;;4.22;1.20;;;;;;;32.92;50.50;100679.31;5224123;28;20103;-76
2022/06/18 07:31:53;;;;;;;3.15;1.05;;;;;;;31.69;50.69;100684.06;5225492;28;20027;-75
2022/06/18 07:34:23;;;;;;;3.23;1.17;;;;;;;33.13;50.50;100684.72;5231622;28;20086;-74
2022/06/18 07:36:53;;;;;;;3.07;1.30;;;;;;;32.85;50.18;100683.84;5231259;28;20270;-74
2022/06/18 07:39:24;;;;;;;8.13;1.50;;;;;;;33.55;47.95;100688.19;5230917;28;20287;-75
2022/06/18 07:41:55;;;;;;;13.67;1.80;;;;;;;33.89;49.50;100687.34;5227483;28;20303;-76
2022/06/18 07:44:25;;;;;;;6.57;1.30;;;;;;;34.27;48.50;100684.00;5223242;28;20343;-74
2022/06/18 07:47:01;;;;;;;10.48;1.73;;;;;;;34.01;48.22;100672.16;5230766;28;20191;-75
2022/06/18 07:49:31;;;;;;;4.82;1.30;;;;;;;34.61;47.90;100672.16;5232264;28;20385;-75
2022/06/18 07:52:02;;;;;;;4.18;1.30;;;;;;;33.74;47.14;100681.22;5230069;28;20021;-76
2022/06/18 07:54:32;;;;;;;2.55;1.05;;;;;;;33.31;48.44;100685.09;5231793;28;20047;-75
2022/06/18 07:57:03;;;;;;;2.67;1.30;;;;;;;33.92;48.53;100684.22;5230051;28;20500;-75
2022/06/18 07:59:33;;;;;;;3.17;1.10;;;;;;;33.62;48.30;100683.63;5224620;28;20299;-75
2022/06/18 08:02:06;;;;;;;8.10;1.35;;;;;;;33.13;49.55;100687.41;5224883;28;20418;-74
2022/06/18 08:04:37;;;;;;;2.88;1.10;;;;;;;33.56;48.92;100681.72;5232887;28;20024;-74
2022/06/18 08:07:08;;;;;;;2.77;1.30;;;;;;;33.44;49.71;100668.88;5228635;28;20070;-76
2022/06/18 08:09:38;;;;;;;3.17;1.40;;;;;;;33.11;49.81;100673.22;5232975;28;20271;-75
2022/06/18 08:12:09;;;;;;;4.17;1.20;;;;;;;33.45;49.79;100673.28;5229056;28;20027;-75
2022/06/18 08:14:39;;;;;;;2.95;1.38;;;;;;;34.22;48.28;100663.91;5229946;28;20538;-75
2022/06/18 08:17:10;;;;;;;5.30;1.40;;;;;;;35.59;46.88;100655.66;5235460;28;20031;-75
2022/06/18 08:19:40;;;;;;;4.40;1.48;;;;;;;34.73;48.04;100662.38;5227851;28;20453;-76
2022/06/18 08:22:10;;;;;;;2.90;1.23;;;;;;;34.71;48.09;100664.47;5231272;28;20039;-73
2022/06/18 08:24:41;;;;;;;6.70;1.67;;;;;;;35.76;46.16;100656.88;5212400;28;20263;-75
2022/06/18 08:27:14;;;;;;;4.43;1.30;;;;;;;34.26;48.74;100654.31;5235998;28;20055;-76
2022/06/18 08:29:44;;;;;;;2.88;1.30;;;;;;;36.29;46.65;100655.59;5225067;28;20066;-75
2022/06/18 08:32:14;;;;;;;2.22;1.25;;;;;;;34.45;47.88;100658.94;5229000;28;20203;-76
2022/06/18 08:34:45;;;;;;;6.43;1.35;;;;;;;35.08;48.27;100657.38;5251211;22;20106;-76
2022/06/18 08:37:15;;;;;;;4.13;1.50;;;;;;;34.51;48.75;100650.81;5226877;28;20033;-75
2022/06/18 08:39:45;;;;;;;4.57;1.50;;;;;;;34.86;48.69;100646.09;5233255;28;20104;-76
2022/06/18 08:42:55;;;;;;;3.35;1.20;;;;;;;34.95;48.24;100651.13;5229855;28;20076;-76
2022/06/18 08:45:38;;;;;;;2.28;1.40;;;;;;;34.66;49.45;100646.03;5230740;28;20039;-76
2022/06/18 08:48:17;;;;;;;4.38;1.48;;;;;;;36.02;47.54;100654.06;5233182;28;20034;-76
2022/06/18 08:51:09;;;;;;;3.75;1.33;;;;;;;36.68;46.34;100649.09;5228170;28;20217;-76
2022/06/18 08:53:52;;;;;;;6.10;1.45;;;;;;;35.49;47.46;100655.28;5225645;28;20029;-76
2022/06/18 08:56:46;;;;;;;4.55;1.35;;;;;;;36.53;46.85;100651.28;5232164;28;20294;-76
2022/06/18 08:59:51;;;;;;;4.43;1.60;;;;;;;36.05;48.15;100650.06;5205827;28;20627;-76
2022/06/18 09:02:31;;;;;;;2.33;1.45;;;;;;;35.54;48.20;100652.72;5227049;28;20033;-76
2022/06/18 09:05:16;;;;;;;4.82;1.40;;;;;;;35.09;48.66;100648.16;5233197;28;20054;-76
2022/06/18 09:08:08;;;;;;;4.15;1.58;;;;;;;36.26;47.82;100647.03;5231284;28;20105;-76
2022/06/18 09:11:18;;;;;;;4.32;1.50;;;;;;;36.01;47.23;100646.09;5236183;28;20755;-76
2022/06/18 09:13:57;;;;;;;4.68;1.67;;;;;;;36.02;48.54;100654.06;5229517;28;20028;-76
2022/06/18 09:17:00;;;;;;;4.22;1.48;;;;;;;36.81;47.04;100657.19;5234500;28;20137;-76
2022/06/18 09:19:32;;;;;;;5.35;1.42;;;;;;;35.21;48.30;100654.69;5192536;28;20060;-76
2022/06/18 09:22:09;;;;;;;3.70;1.70;;;;;;;36.41;46.84;100642.97;5230813;28;20458;-75
2022/06/18 09:24:43;;;;;;;5.82;1.48;;;;;;;35.33;48.07;100655.72;5227708;28;20056;-76
2022/06/18 09:27:34;;;;;;;4.43;1.50;;;;;;;35.46;48.32;100650.22;5233162;28;20094;-75
2022/06/18 09:30:30;;;;;;;4.95;1.48;;;;;;;34.91;48.88;100654.44;5222487;28;20075;-74
2022/06/18 09:33:16;;;;;;;4.03;1.70;;;;;;;35.65;49.23;100649.38;5233320;28;20507;-76
2022/06/18 09:35:56;;;;;;;;;;;;;;;35.97;48.87;100642.16;5230386;28;20295;-76
2022/06/18 09:38:41;;;;;;;3.33;1.60;;;;;;;35.83;47.17;100651.41;5232313;28;20393;-76
2022/06/18 09:41:26;;;;;;;3.33;1.70;;;;;;;35.30;48.61;100647.94;5227867;28;20055;-76
2022/06/18 09:44:25;;;;;;;5.60;1.40;;;;;;;36.40;47.77;100643.19;5233405;28;20122;-76
2022/06/18 09:47:00;;;;;;;2.80;1.50;;;;;;;36.69;49.08;100648.91;5225412;28;20323;-75
2022/06/18 09:49:31;;;;;;;4.20;1.60;;;;;;;36.92;47.75;100640.09;5225448;28;20033;-76
2022/06/18 09:52:07;;;;;;;3.35;1.40;;;;;;;36.64;48.76;100635.06;5232717;28;20077;-76
2022/06/18 09:54:43;;;;;;;4.47;1.60;;;;;;;36.32;47.52;100638.81;5229211;28;20086;-74
2022/06/18 09:57:17;;;;;;;4.78;1.90;;;;;;;36.37;48.00;100644.47;5225986;28;20025;-75
2022/06/18 10:00:09;;;;;;;2.83;1.70;;;;;;;36.67;47.50;100633.81;5223930;28;20040;-75
2022/06/18 10:02:47;;;;;;;8.35;1.90;;;;;;;35.17;49.63;100642.56;5229008;28;20029;-75
2022/06/18 10:08:21;;;;;;;9.07;2.10;;;;;;;35.25;49.62;100636.88;5229062;28;20090;-75
2022/06/18 10:10:55;;;;;;;7.00;1.88;;;;;;;35.80;49.74;100625.44;5213710;28;20208;-75
2022/06/18 10:13:28;;;;;;;5.13;1.80;;;;;;;34.85;51.22;100628.13;5231995;28;20128;-75
2022/06/18 10:16:07;;;;;;;5.25;1.85;;;;;;;34.29;51.21;100635.75;5230559;28;20067;-75
2022/06/18 10:19:03;;;;;;;5.88;2.10;;;;;;;34.29;52.36;100622.16;5232525;28;20543;-74
2022/06/18 10:21:42;;;;;;;3.63;1.80;;;;;;;33.96;52.74;100621.22;5227925;28;20573;-74
2022/06/18 10:24:25;;;;;;;3.63;1.70;;;;;;;33.96;53.76;100625.78;5225995;28;20029;-75
2022/06/18 10:27:25;;;;;;;6.82;1.92;;;;;;;34.19;53.09;100618.19;5231547;28;20515;-73
2022/06/18 10:30:03;;;;;;;5.35;2.00;;;;;;;33.79;53.85;100630.75;5219218;28;20410;-74
2022/06/18 10:32:52;;;;;;;6.93;2.40;;;;;;;33.62;53.16;100625.81;5225138;28;20053;-74
2022/06/18 10:35:47;;;;;;;7.25;2.22;;;;;;;33.46;53.91;100612.63;5228707;28;20044;-75
2022/06/18 10:38:38;;;;;;;11.57;2.50;;;;;;;33.16;53.43;100617.38;5209165;28;20028;-75
2022/06/18 10:41:16;;;;;;;4.53;2.13;;;;;;;33.17;54.63;100616.34;5228573;28;20048;-75
2022/06/18 10:44:02;;;;;;;9.48;2.58;;;;;;;33.16;54.68;100611.97;5227086;28;20387;-75
2022/06/18 10:46:33;;;;;;;5.43;1.98;;;;;;;33.00;56.22;100606.03;5224296;28;20060;-74
2022/06/18 10:49:06;;;;;;;8.52;2.38;;;;;;;33.00;54.40;100600.59;5221923;28;20021;-75
2022/06/18 10:51:45;;;;;;;6.88;2.53;;;;;;;32.41;55.28;100601.09;5226564;28;20040;-74
2022/06/18 10:54:28;;;;;;;6.50;2.15;;;;;;;32.64;54.76;100609.84;5226545;28;20453;-75
2022/06/18 10:56:59;;;;;;;5.55;2.10;;;;;;;32.49;54.66;100593.69;5229205;28;20052;-75
2022/06/18 10:59:38;;;;;;;7.40;2.28;;;;;;;32.72;54.40;100594.31;5224384;28;20024;-74
2022/06/18 11:02:14;;;;;;;7.00;2.38;;;;;;;32.51;54.51;100597.03;5224066;28;20051;-75
2022/06/18 11:05:00;;;;;;;6.53;2.58;;;;;;;32.55;55.08;100598.31;5226205;28;20080;-76
2022/06/18 11:07:32;;;;;;;;;;;;;;;32.58;55.53;100595.22;5230018;28;20130;-77
2022/06/18 11:10:20;;;;;;;10.18;2.72;;;;;;;32.80;56.17;100599.63;5229141;28;19924;-78
2022/06/18 11:12:56;;;;;;;7.50;2.50;;;;;;;32.35;56.12;100599.19;5227539;28;20036;-77
2022/06/18 11:15:34;;;;;;;6.00;2.38;;;;;;;32.33;54.17;100596.66;5231184;28;20481;-77
2022/06/18 11:18:20;;;;;;;7.22;2.38;;;;;;;32.63;54.70;100592.78;5227818;28;20036;-77
2022/06/18 11:20:56;;;;;;;5.53;2.38;;;;;;;32.82;56.76;100591.28;5228285;28;20517;-77
2022/06/18 11:23:27;;;;;;;9.15;2.38;;;;;;;32.72;55.18;100586.19;5228699;28;20039;-77
2022/06/18 11:25:58;;;;;;;7.25;2.40;;;;;;;32.76;56.15;100592.06;5228891;28;20028;-77
2022/06/18 11:28:36;;;;;;;6.15;2.33;;;;;;;32.57;55.09;100593.53;5223645;28;20124;-77
2022/06/18 11:31:09;;;;;;;8.55;2.40;;;;;;;32.46;55.11;100591.38;5226594;28;20021;-77
2022/06/18 11:33:51;;;;;;;7.00;2.53;;;;;;;32.51;54.67;100585.34;5222400;28;20186;-76
2022/06/18 11:36:36;;;;;;;12.02;2.63;;;;;;;32.30;56.16;100590.78;5230177;28;20036;-76
2022/06/18 11:39:25;;;;;;;5.82;2.40;;;;;;;32.55;56.25;100594.78;5231601;28;20404;-76
2022/06/18 11:42:01;;;;;;;7.80;2.30;;;;;;;32.47;55.73;100581.38;5221162;28;20032;-76
2022/06/18 11:44:41;;;;;;;8.60;2.70;;;;;;;32.25;55.62;100585.13;5223942;28;20397;-76
2022/06/18 11:47:17;;;;;;;10.85;2.90;;;;;;;32.47;55.82;100576.81;5229388;28;20039;-77
2022/06/18 11:50:20;;;;;;;6.47;2.42;;;;;;;32.61;56.06;100572.31;5224766;28;20024;-77
2022/06/18 11:52:59;;;;;;;7.18;2.47;;;;;;;32.72;54.38;100586.19;5231460;28;20071;-77
2022/06/18 11:55:36;;;;;;;6.13;2.15;;;;;;;32.45;54.18;100578.88;5234952;28;20036;-76
2022/06/18 11:58:10;;;;;;;7.82;2.85;;;;;;;32.10;54.89;100568.91;5231253;28;20040;-74
2022/06/18 12:00:45;;;;;;;8.55;2.88;;;;;;;32.30;55.44;100575.41;5227449;28;20036;-77
2022/06/18 12:03:18;;;;;;;7.95;2.90;;;;;;;32.23;54.76;100574.47;5228043;28;20036;-76
2022/06/18 12:05:56;;;;;;;11.38;2.80;;;;;;;32.21;55.41;100565.72;5228037;28;20425;-77
2022/06/18 12:08:27;;;;;;;6.85;2.70;;;;;;;32.30;54.83;100572.69;5227556;28;20037;-77
2022/06/18 12:11:09;;;;;;;4.95;2.30;;;;;;;32.26;55.14;100574.09;5213732;28;20028;-77
2022/06/18 12:13:48;;;;;;;9.73;2.70;;;;;;;32.09;55.15;100567.25;5226799;28;20417;-77
2022/06/18 12:16:36;;;;;;;7.38;2.80;;;;;;;32.11;56.00;100567.03;5230631;28;20062;-77
2022/06/18 12:19:16;;;;;;;9.55;2.67;;;;;;;32.13;56.42;100567.66;5233449;28;20060;-77
2022/06/18 12:22:13;;;;;;;10.48;2.80;;;;;;;32.22;57.49;100556.56;5229636;28;20029;-77